PWSweather.com
Personal Weather Stations
Station Observations
HELOTES
Helotes Park Terrace, Helotes, TX 78023

Helotes Park TerraceHelotes, TX 78023

Lat: 29.57, Lon: -98.68

Elevation: 1060

Station Type: Ambient Weather WS-1090

Latest ConditionsUpdated 8:06:50 PM CST Saturday, Dec 10, 2016
Currently Today's Max Today's Min Today's Average
Temperature 45.4°F7.4°C 45.7°F7.6°C 32.2°F0.1°C 41.1°F5.1°C
Dew Point 42.9°F6.1°C 42.9°F6.1°C 26.0°F-3.3°C 35.7°F2.1°C
Winds Calm Calm 1.3 mph NE2.1 kmh NE - 0.2 mph 0.3 kmh
Wind Gusts -- 2.2 mph3.5 kmh - -
Humidity 91% 91% 74% 81%
Pressure 30.12 in1020.0 mb 30.36 in1028.1 mb 30.12 in1020.0 mb -
Hour Temp Dew Point Humidity Winds Wind Gusts Pressure Precip Precip Rate Daily Precip Total
08:06 PM 45.4°F7.4°C 42.9°F6.1°C 91% Calm Calm -- 30.12 in1020.0 mb 0.00 in0.0 mm 0.00 in0.0 mm 0.00 in0.0 mm
08:01 PM 45.4°F7.4°C 42.9°F6.1°C 91% Calm Calm -- 30.13 in1020.3 mb 0.00 in0.0 mm 0.00 in0.0 mm 0.00 in0.0 mm
07:56 PM 45.4°F7.4°C 42.9°F6.1°C 91% Calm Calm -- 30.12 in1020.0 mb 0.00 in0.0 mm 0.00 in0.0 mm 0.00 in0.0 mm
07:51 PM 45.4°F7.4°C 42.9°F6.1°C 91% Calm Calm 0.4 mph0.6 kmh 30.13 in1020.3 mb 0.00 in0.0 mm 0.00 in0.0 mm 0.00 in0.0 mm
07:46 PM 45.4°F7.4°C 42.9°F6.1°C 91% 0.3 mph NE0.5 kmh NE 0.4 mph0.6 kmh 30.12 in1020.0 mb 0.00 in0.0 mm 0.00 in0.0 mm 0.00 in0.0 mm
07:41 PM 45.4°F7.4°C 42.9°F6.1°C 91% 0.3 mph ESE0.5 kmh ESE 0.4 mph0.6 kmh 30.12 in1020.0 mb 0.00 in0.0 mm 0.00 in0.0 mm 0.00 in0.0 mm
07:36 PM 45.4°F7.4°C 42.9°F6.1°C 91% Calm Calm -- 30.13 in1020.3 mb 0.00 in0.0 mm 0.00 in0.0 mm 0.00 in0.0 mm
07:31 PM 45.4°F7.4°C 42.9°F6.1°C 91% Calm Calm -- 30.13 in1020.3 mb 0.00 in0.0 mm 0.00 in0.0 mm 0.00 in0.0 mm
07:26 PM 45.2°F7.3°C 42.8°F6.0°C 91% Calm Calm -- 30.13 in1020.3 mb 0.00 in0.0 mm 0.00 in0.0 mm 0.00 in0.0 mm
07:21 PM 45.2°F7.3°C 42.8°F6.0°C 91% Calm Calm -- 30.14 in1020.7 mb 0.00 in0.0 mm 0.00 in0.0 mm 0.00 in0.0 mm
07:16 PM 45.2°F7.3°C 42.5°F5.8°C 90% Calm Calm -- 30.14 in1020.7 mb 0.00 in0.0 mm 0.00 in0.0 mm 0.00 in0.0 mm
07:11 PM 45.2°F7.3°C 42.5°F5.8°C 90% Calm Calm -- 30.14 in1020.7 mb 0.00 in0.0 mm 0.00 in0.0 mm 0.00 in0.0 mm
07:06 PM 45.2°F7.3°C 42.5°F5.8°C 90% Calm Calm -- 30.14 in1020.7 mb 0.00 in0.0 mm 0.00 in0.0 mm 0.00 in0.0 mm
07:01 PM 45.2°F7.3°C 42.5°F5.8°C 90% Calm Calm -- 30.14 in1020.7 mb 0.00 in0.0 mm 0.00 in0.0 mm 0.00 in0.0 mm
06:56 PM 45.2°F7.3°C 42.5°F5.8°C 90% Calm Calm -- 30.13 in1020.3 mb 0.00 in0.0 mm 0.00 in0.0 mm 0.00 in0.0 mm
06:51 PM 45.2°F7.3°C 42.5°F5.8°C 90% Calm Calm -- 30.14 in1020.7 mb 0.00 in0.0 mm 0.00 in0.0 mm 0.00 in0.0 mm
06:46 PM 45.2°F7.3°C 42.5°F5.8°C 90% Calm Calm -- 30.14 in1020.7 mb 0.00 in0.0 mm 0.00 in0.0 mm 0.00 in0.0 mm
06:41 PM 45.2°F7.3°C 42.5°F5.8°C 90% Calm Calm -- 30.14 in1020.7 mb 0.00 in0.0 mm 0.00 in0.0 mm 0.00 in0.0 mm
06:36 PM 45.2°F7.3°C 42.5°F5.8°C 90% Calm Calm -- 30.14 in1020.7 mb 0.00 in0.0 mm 0.00 in0.0 mm 0.00 in0.0 mm
06:31 PM 45.2°F7.3°C 42.5°F5.8°C 90% Calm Calm -- 30.14 in1020.7 mb 0.00 in0.0 mm 0.00 in0.0 mm 0.00 in0.0 mm
06:26 PM 45.2°F7.3°C 42.5°F5.8°C 90% Calm Calm -- 30.14 in1020.7 mb 0.00 in0.0 mm 0.00 in0.0 mm 0.00 in0.0 mm
06:21 PM 45.2°F7.3°C 42.5°F5.8°C 90% Calm Calm -- 30.15 in1021.0 mb 0.00 in0.0 mm 0.00 in0.0 mm 0.00 in0.0 mm
06:16 PM 45.2°F7.3°C 42.5°F5.8°C 90% Calm Calm -- 30.14 in1020.7 mb 0.00 in0.0 mm 0.00 in0.0 mm 0.00 in0.0 mm
06:11 PM 45.2°F7.3°C 42.5°F5.8°C 90% Calm Calm -- 30.14 in1020.7 mb 0.00 in0.0 mm 0.00 in0.0 mm 0.00 in0.0 mm
06:06 PM 45.2°F7.3°C 42.2°F5.7°C 89% Calm Calm 0.4 mph0.6 kmh 30.14 in1020.7 mb 0.00 in0.0 mm 0.00 in0.0 mm 0.00 in0.0 mm
06:01 PM 45.4°F7.4°C 42.4°F5.8°C 89% 0.4 mph SE0.6 kmh SE 1.1 mph1.8 kmh 30.14 in1020.7 mb 0.00 in0.0 mm 0.00 in0.0 mm 0.00 in0.0 mm
05:56 PM 45.4°F7.4°C 42.4°F5.8°C 89% 0.5 mph NE0.8 kmh NE 1.1 mph1.8 kmh 30.14 in1020.7 mb 0.00 in0.0 mm 0.00 in0.0 mm 0.00 in0.0 mm
05:51 PM 45.4°F7.4°C 42.4°F5.8°C 89% 0.5 mph ESE0.8 kmh ESE 0.7 mph1.1 kmh 30.14 in1020.7 mb 0.00 in0.0 mm 0.00 in0.0 mm 0.00 in0.0 mm
05:46 PM 45.4°F7.4°C 42.4°F5.8°C 89% Calm Calm -- 30.14 in1020.7 mb 0.00 in0.0 mm 0.00 in0.0 mm 0.00 in0.0 mm
05:41 PM 45.4°F7.4°C 42.4°F5.8°C 89% Calm Calm 0.2 mph0.3 kmh 30.14 in1020.7 mb 0.00 in0.0 mm 0.00 in0.0 mm 0.00 in0.0 mm
05:36 PM 45.4°F7.4°C 42.4°F5.8°C 89% 0.2 mph SE0.3 kmh SE 0.2 mph0.3 kmh 30.14 in1020.7 mb 0.00 in0.0 mm 0.00 in0.0 mm 0.00 in0.0 mm
05:31 PM 45.4°F7.4°C 42.4°F5.8°C 89% Calm Calm -- 30.15 in1021.0 mb 0.00 in0.0 mm 0.00 in0.0 mm 0.00 in0.0 mm
05:26 PM 45.4°F7.4°C 42.4°F5.8°C 89% Calm Calm 1.3 mph2.1 kmh 30.15 in1021.0 mb 0.00 in0.0 mm 0.00 in0.0 mm 0.00 in0.0 mm
05:21 PM 45.4°F7.4°C 42.4°F5.8°C 89% 0.3 mph SE0.5 kmh SE 1.3 mph2.1 kmh 30.15 in1021.0 mb 0.00 in0.0 mm 0.00 in0.0 mm 0.00 in0.0 mm
05:16 PM 45.5°F7.5°C 42.6°F5.9°C 89% 0.4 mph E0.6 kmh E 0.9 mph1.4 kmh 30.15 in1021.0 mb 0.00 in0.0 mm 0.00 in0.0 mm 0.00 in0.0 mm
05:11 PM 45.5°F7.5°C 42.6°F5.9°C 89% 0.6 mph SE1.0 kmh SE 0.9 mph1.4 kmh 30.15 in1021.0 mb 0.00 in0.0 mm 0.00 in0.0 mm 0.00 in0.0 mm
05:06 PM 45.5°F7.5°C 42.2°F5.7°C 88% 0.2 mph ENE0.3 kmh ENE 1.3 mph2.1 kmh 30.15 in1021.0 mb 0.00 in0.0 mm 0.00 in0.0 mm 0.00 in0.0 mm
05:01 PM 45.5°F7.5°C 42.2°F5.7°C 88% 0.7 mph ENE1.1 kmh ENE 1.3 mph2.1 kmh 30.15 in1021.0 mb 0.00 in0.0 mm 0.00 in0.0 mm 0.00 in0.0 mm
04:56 PM 45.5°F7.5°C 42.2°F5.7°C 88% Calm Calm 0.9 mph1.4 kmh 30.16 in1021.3 mb 0.00 in0.0 mm 0.00 in0.0 mm 0.00 in0.0 mm
04:51 PM 45.5°F7.5°C 42.2°F5.7°C 88% 0.3 mph NE0.5 kmh NE 1.8 mph2.9 kmh 30.15 in1021.0 mb 0.00 in0.0 mm 0.00 in0.0 mm 0.00 in0.0 mm
04:46 PM 45.5°F7.5°C 42.2°F5.7°C 88% 1.2 mph ESE1.9 kmh ESE 1.8 mph2.9 kmh 30.15 in1021.0 mb 0.00 in0.0 mm 0.00 in0.0 mm 0.00 in0.0 mm
04:41 PM 45.5°F7.5°C 42.2°F5.7°C 88% 1.1 mph SE1.8 kmh SE 1.8 mph2.9 kmh 30.15 in1021.0 mb 0.00 in0.0 mm 0.00 in0.0 mm 0.00 in0.0 mm
04:36 PM 45.5°F7.5°C 42.2°F5.7°C 88% 0.6 mph SE1.0 kmh SE 1.8 mph2.9 kmh 30.16 in1021.3 mb 0.00 in0.0 mm 0.00 in0.0 mm 0.00 in0.0 mm
04:31 PM 45.5°F7.5°C 42.0°F5.6°C 87% 0.8 mph NE1.3 kmh NE 1.8 mph2.9 kmh 30.16 in1021.3 mb 0.00 in0.0 mm 0.00 in0.0 mm 0.00 in0.0 mm
04:26 PM 45.5°F7.5°C 42.0°F5.6°C 87% 0.3 mph NE0.5 kmh NE 1.3 mph2.1 kmh 30.16 in1021.3 mb 0.00 in0.0 mm 0.00 in0.0 mm 0.00 in0.0 mm
04:21 PM 45.5°F7.5°C 42.0°F5.6°C 87% 1.1 mph ENE1.8 kmh ENE 1.3 mph2.1 kmh 30.16 in1021.3 mb 0.00 in0.0 mm 0.00 in0.0 mm 0.00 in0.0 mm
04:16 PM 45.5°F7.5°C 42.0°F5.6°C 87% 0.3 mph ENE0.5 kmh ENE 1.1 mph1.8 kmh 30.16 in1021.3 mb 0.00 in0.0 mm 0.00 in0.0 mm 0.00 in0.0 mm
04:11 PM 45.5°F7.5°C 42.0°F5.6°C 87% 0.5 mph E0.8 kmh E 1.1 mph1.8 kmh 30.16 in1021.3 mb 0.00 in0.0 mm 0.00 in0.0 mm 0.00 in0.0 mm
04:06 PM 45.5°F7.5°C 42.0°F5.6°C 87% 0.6 mph E1.0 kmh E 1.1 mph1.8 kmh 30.16 in1021.3 mb 0.00 in0.0 mm 0.00 in0.0 mm 0.00 in0.0 mm
04:01 PM 45.5°F7.5°C 41.6°F5.3°C 86% 0.4 mph SE0.6 kmh SE 1.1 mph1.8 kmh 30.17 in1021.7 mb 0.00 in0.0 mm 0.00 in0.0 mm 0.00 in0.0 mm
03:56 PM 45.7°F7.6°C 41.8°F5.4°C 86% 0.7 mph E1.1 kmh E 1.1 mph1.8 kmh 30.16 in1021.3 mb 0.00 in0.0 mm 0.00 in0.0 mm 0.00 in0.0 mm
03:51 PM 45.7°F7.6°C 41.8°F5.4°C 86% 0.9 mph NE1.4 kmh NE 1.3 mph2.1 kmh 30.16 in1021.3 mb 0.00 in0.0 mm 0.00 in0.0 mm 0.00 in0.0 mm
03:46 PM 45.7°F7.6°C 41.8°F5.4°C 86% 0.4 mph NE0.6 kmh NE 1.8 mph2.9 kmh 30.17 in1021.7 mb 0.00 in0.0 mm 0.00 in0.0 mm 0.00 in0.0 mm
03:41 PM 45.7°F7.6°C 41.8°F5.4°C 86% 0.8 mph S1.3 kmh S 1.8 mph2.9 kmh 30.17 in1021.7 mb 0.00 in0.0 mm 0.00 in0.0 mm 0.00 in0.0 mm
03:36 PM 45.7°F7.6°C 41.5°F5.3°C 85% 1.2 mph E1.9 kmh E 1.8 mph2.9 kmh 30.17 in1021.7 mb 0.00 in0.0 mm 0.00 in0.0 mm 0.00 in0.0 mm
03:31 PM 45.7°F7.6°C 41.5°F5.3°C 85% 0.7 mph E1.1 kmh E 1.6 mph2.6 kmh 30.17 in1021.7 mb 0.00 in0.0 mm 0.00 in0.0 mm 0.00 in0.0 mm
03:26 PM 45.7°F7.6°C 41.5°F5.3°C 85% 0.4 mph NNE0.6 kmh NNE 1.8 mph2.9 kmh 30.18 in1022.0 mb 0.00 in0.0 mm 0.00 in0.0 mm 0.00 in0.0 mm
03:21 PM 45.7°F7.6°C 41.5°F5.3°C 85% 0.9 mph SE1.4 kmh SE 1.8 mph2.9 kmh 30.18 in1022.0 mb 0.00 in0.0 mm 0.00 in0.0 mm 0.00 in0.0 mm
03:16 PM 45.7°F7.6°C 41.5°F5.3°C 85% 0.5 mph NE0.8 kmh NE 1.1 mph1.8 kmh 30.18 in1022.0 mb 0.00 in0.0 mm 0.00 in0.0 mm 0.00 in0.0 mm
03:11 PM 45.7°F7.6°C 41.5°F5.3°C 85% 0.6 mph NE1.0 kmh NE 1.8 mph2.9 kmh 30.18 in1022.0 mb 0.00 in0.0 mm 0.00 in0.0 mm 0.00 in0.0 mm
03:06 PM 45.7°F7.6°C 41.5°F5.3°C 85% 0.5 mph SE0.8 kmh SE 1.8 mph2.9 kmh 30.18 in1022.0 mb 0.00 in0.0 mm 0.00 in0.0 mm 0.00 in0.0 mm
03:01 PM 45.7°F7.6°C 41.5°F5.3°C 85% 1.1 mph SE1.8 kmh SE 2.2 mph3.5 kmh 30.18 in1022.0 mb 0.00 in0.0 mm 0.00 in0.0 mm 0.00 in0.0 mm
02:56 PM 45.7°F7.6°C 41.5°F5.3°C 85% 1.0 mph ESE1.6 kmh ESE 2.2 mph3.5 kmh 30.18 in1022.0 mb 0.00 in0.0 mm 0.00 in0.0 mm 0.00 in0.0 mm
02:51 PM 45.5°F7.5°C 41.3°F5.2°C 85% 0.7 mph E1.1 kmh E 1.8 mph2.9 kmh 30.19 in1022.4 mb 0.00 in0.0 mm 0.00 in0.0 mm 0.00 in0.0 mm
02:46 PM 45.5°F7.5°C 41.1°F5.1°C 84% 0.8 mph E1.3 kmh E 1.8 mph2.9 kmh 30.19 in1022.4 mb 0.00 in0.0 mm 0.00 in0.0 mm 0.00 in0.0 mm
02:41 PM 45.5°F7.5°C 41.1°F5.1°C 84% 0.5 mph SE0.8 kmh SE 1.6 mph2.6 kmh 30.20 in1022.7 mb 0.00 in0.0 mm 0.00 in0.0 mm 0.00 in0.0 mm
02:36 PM 45.5°F7.5°C 41.1°F5.1°C 84% 0.9 mph E1.4 kmh E 1.8 mph2.9 kmh 30.19 in1022.4 mb 0.00 in0.0 mm 0.00 in0.0 mm 0.00 in0.0 mm
02:31 PM 45.5°F7.5°C 41.3°F5.2°C 85% 0.6 mph NE1.0 kmh NE 1.8 mph2.9 kmh 30.20 in1022.7 mb 0.00 in0.0 mm 0.00 in0.0 mm 0.00 in0.0 mm
02:26 PM 45.5°F7.5°C 41.3°F5.2°C 85% 1.3 mph NE2.1 kmh NE 1.8 mph2.9 kmh 30.20 in1022.7 mb 0.00 in0.0 mm 0.00 in0.0 mm 0.00 in0.0 mm
02:21 PM 45.4°F7.4°C 40.9°F4.9°C 84% 0.3 mph SE0.5 kmh SE 1.3 mph2.1 kmh 30.20 in1022.7 mb 0.00 in0.0 mm 0.00 in0.0 mm 0.00 in0.0 mm
02:16 PM 45.2°F7.3°C 40.7°F4.8°C 84% 0.5 mph ESE0.8 kmh ESE 1.1 mph1.8 kmh 30.20 in1022.7 mb 0.00 in0.0 mm 0.00 in0.0 mm 0.00 in0.0 mm
02:11 PM 45.2°F7.3°C 40.7°F4.8°C 84% 0.9 mph ENE1.4 kmh ENE 1.6 mph2.6 kmh 30.20 in1022.7 mb 0.00 in0.0 mm 0.00 in0.0 mm 0.00 in0.0 mm
02:06 PM 45.0°F7.2°C 40.5°F4.7°C 84% 0.3 mph N0.5 kmh N 1.8 mph2.9 kmh 30.20 in1022.7 mb 0.00 in0.0 mm 0.00 in0.0 mm 0.00 in0.0 mm
02:01 PM 44.8°F7.1°C 40.3°F4.6°C 84% 1.1 mph SE1.8 kmh SE 1.8 mph2.9 kmh 30.21 in1023.0 mb 0.00 in0.0 mm 0.00 in0.0 mm 0.00 in0.0 mm
01:56 PM 44.8°F7.1°C 40.3°F4.6°C 84% 0.7 mph NE1.1 kmh NE 1.8 mph2.9 kmh 30.21 in1023.0 mb 0.00 in0.0 mm 0.00 in0.0 mm 0.00 in0.0 mm
01:51 PM 44.8°F7.1°C 40.3°F4.6°C 84% 0.5 mph NE0.8 kmh NE 1.8 mph2.9 kmh 30.21 in1023.0 mb 0.00 in0.0 mm 0.00 in0.0 mm 0.00 in0.0 mm
01:46 PM 44.6°F7.0°C 40.2°F4.6°C 84% 1.1 mph E1.8 kmh E 1.1 mph1.8 kmh 30.21 in1023.0 mb 0.00 in0.0 mm 0.00 in0.0 mm 0.00 in0.0 mm
01:41 PM 44.6°F7.0°C 40.2°F4.6°C 84% Calm Calm 1.1 mph1.8 kmh 30.21 in1023.0 mb 0.00 in0.0 mm 0.00 in0.0 mm 0.00 in0.0 mm
01:36 PM 44.6°F7.0°C 40.2°F4.6°C 84% 0.6 mph ENE1.0 kmh ENE 1.1 mph1.8 kmh 30.22 in1023.4 mb 0.00 in0.0 mm 0.00 in0.0 mm 0.00 in0.0 mm
01:31 PM 44.5°F6.9°C 40.0°F4.4°C 84% 0.3 mph NW0.5 kmh NW 0.7 mph1.1 kmh 30.22 in1023.4 mb 0.00 in0.0 mm 0.00 in0.0 mm 0.00 in0.0 mm
01:26 PM 44.3°F6.8°C 39.8°F4.3°C 84% 0.2 mph NE0.3 kmh NE 1.1 mph1.8 kmh 30.23 in1023.7 mb 0.00 in0.0 mm 0.00 in0.0 mm 0.00 in0.0 mm
01:21 PM 44.3°F6.8°C 39.8°F4.3°C 84% Calm Calm 1.1 mph1.8 kmh 30.23 in1023.7 mb 0.00 in0.0 mm 0.00 in0.0 mm 0.00 in0.0 mm
01:16 PM 44.1°F6.7°C 39.6°F4.2°C 84% 0.2 mph NW0.3 kmh NW 1.6 mph2.6 kmh 30.23 in1023.7 mb 0.00 in0.0 mm 0.00 in0.0 mm 0.00 in0.0 mm
01:11 PM 43.9°F6.6°C 39.4°F4.1°C 84% 0.8 mph E1.3 kmh E 1.6 mph2.6 kmh 30.23 in1023.7 mb 0.00 in0.0 mm 0.00 in0.0 mm 0.00 in0.0 mm
01:06 PM 43.9°F6.6°C 39.4°F4.1°C 84% Calm Calm 0.4 mph0.6 kmh 30.24 in1024.0 mb 0.00 in0.0 mm 0.00 in0.0 mm 0.00 in0.0 mm
01:01 PM 43.7°F6.5°C 39.3°F4.1°C 84% 0.3 mph NW0.5 kmh NW 0.4 mph0.6 kmh 30.24 in1024.0 mb 0.00 in0.0 mm 0.00 in0.0 mm 0.00 in0.0 mm
12:56 PM 43.7°F6.5°C 39.3°F4.1°C 84% Calm Calm 1.8 mph2.9 kmh 30.24 in1024.0 mb 0.00 in0.0 mm 0.00 in0.0 mm 0.00 in0.0 mm
12:51 PM 43.7°F6.5°C 39.3°F4.1°C 84% 1.1 mph 1.8 kmh 1.8 mph2.9 kmh 30.25 in1024.4 mb 0.00 in0.0 mm 0.00 in0.0 mm 0.00 in0.0 mm
12:46 PM 43.6°F6.4°C 39.1°F3.9°C 84% 0.7 mph SSE1.1 kmh SSE 1.3 mph2.1 kmh 30.25 in1024.4 mb 0.00 in0.0 mm 0.00 in0.0 mm 0.00 in0.0 mm
12:41 PM 43.6°F6.4°C 39.1°F3.9°C 84% 0.8 mph WSW1.3 kmh WSW 1.1 mph1.8 kmh 30.25 in1024.4 mb 0.00 in0.0 mm 0.00 in0.0 mm 0.00 in0.0 mm
12:36 PM 43.4°F6.3°C 38.5°F3.6°C 83% 0.5 mph NNW0.8 kmh NNW 1.1 mph1.8 kmh 30.25 in1024.4 mb 0.00 in0.0 mm 0.00 in0.0 mm 0.00 in0.0 mm
12:31 PM 43.4°F6.3°C 38.5°F3.6°C 83% 0.6 mph NE1.0 kmh NE 1.1 mph1.8 kmh 30.26 in1024.7 mb 0.00 in0.0 mm 0.00 in0.0 mm 0.00 in0.0 mm
12:26 PM 43.2°F6.2°C 38.3°F3.5°C 83% Calm Calm 0.9 mph1.4 kmh 30.26 in1024.7 mb 0.00 in0.0 mm 0.00 in0.0 mm 0.00 in0.0 mm
12:21 PM 43.2°F6.2°C 38.3°F3.5°C 83% 0.6 mph NW1.0 kmh NW 0.9 mph1.4 kmh 30.26 in1024.7 mb 0.00 in0.0 mm 0.00 in0.0 mm 0.00 in0.0 mm
12:16 PM 43.2°F6.2°C 38.3°F3.5°C 83% Calm Calm 0.4 mph0.6 kmh 30.27 in1025.1 mb 0.00 in0.0 mm 0.00 in0.0 mm 0.00 in0.0 mm
12:11 PM 43.0°F6.1°C 38.2°F3.4°C 83% 0.3 mph W0.5 kmh W 0.4 mph0.6 kmh 30.27 in1025.1 mb 0.00 in0.0 mm 0.00 in0.0 mm 0.00 in0.0 mm
12:06 PM 42.8°F6.0°C 37.7°F3.2°C 82% Calm Calm 0.4 mph0.6 kmh 30.27 in1025.1 mb 0.00 in0.0 mm 0.00 in0.0 mm 0.00 in0.0 mm
12:01 PM 42.8°F6.0°C 37.7°F3.2°C 82% Calm Calm 0.4 mph0.6 kmh 30.28 in1025.4 mb 0.00 in0.0 mm 0.00 in0.0 mm 0.00 in0.0 mm
11:56 AM 42.8°F6.0°C 37.4°F3.0°C 81% Calm Calm 1.1 mph1.8 kmh 30.28 in1025.4 mb 0.00 in0.0 mm 0.00 in0.0 mm 0.00 in0.0 mm
11:51 AM 42.8°F6.0°C 37.4°F3.0°C 81% Calm Calm 1.1 mph1.8 kmh 30.29 in1025.7 mb 0.00 in0.0 mm 0.00 in0.0 mm 0.00 in0.0 mm
11:46 AM 42.8°F6.0°C 37.4°F3.0°C 81% Calm Calm 0.9 mph1.4 kmh 30.29 in1025.7 mb 0.00 in0.0 mm 0.00 in0.0 mm 0.00 in0.0 mm
11:41 AM 42.7°F5.9°C 37.2°F2.9°C 81% 0.5 mph E0.8 kmh E 0.9 mph1.4 kmh 30.29 in1025.7 mb 0.00 in0.0 mm 0.00 in0.0 mm 0.00 in0.0 mm
11:36 AM 42.7°F5.9°C 37.2°F2.9°C 81% 0.6 mph E1.0 kmh E 0.9 mph1.4 kmh 30.30 in1026.1 mb 0.00 in0.0 mm 0.00 in0.0 mm 0.00 in0.0 mm
11:31 AM 42.7°F5.9°C 36.9°F2.7°C 80% 0.3 mph NNW0.5 kmh NNW 2.2 mph3.5 kmh 30.30 in1026.1 mb 0.00 in0.0 mm 0.00 in0.0 mm 0.00 in0.0 mm
11:26 AM 42.7°F5.9°C 37.2°F2.9°C 81% 0.4 mph ENE0.6 kmh ENE 2.2 mph3.5 kmh 30.30 in1026.1 mb 0.00 in0.0 mm 0.00 in0.0 mm 0.00 in0.0 mm
11:21 AM 42.5°F5.8°C 37.0°F2.8°C 81% 0.7 mph E1.1 kmh E 1.3 mph2.1 kmh 30.31 in1026.4 mb 0.00 in0.0 mm 0.00 in0.0 mm 0.00 in0.0 mm
11:16 AM 42.5°F5.8°C 36.7°F2.6°C 80% 0.8 mph ESE1.3 kmh ESE 1.1 mph1.8 kmh 30.31 in1026.4 mb 0.00 in0.0 mm 0.00 in0.0 mm 0.00 in0.0 mm
11:11 AM 42.3°F5.7°C 36.5°F2.5°C 80% 0.2 mph ENE0.3 kmh ENE 0.4 mph0.6 kmh 30.31 in1026.4 mb 0.00 in0.0 mm 0.00 in0.0 mm 0.00 in0.0 mm
11:06 AM 42.5°F5.8°C 36.7°F2.6°C 80% 0.4 mph WSW0.6 kmh WSW 0.4 mph0.6 kmh 30.31 in1026.4 mb 0.00 in0.0 mm 0.00 in0.0 mm 0.00 in0.0 mm
11:01 AM 42.3°F5.7°C 36.5°F2.5°C 80% Calm Calm 0.4 mph0.6 kmh 30.32 in1026.8 mb 0.00 in0.0 mm 0.00 in0.0 mm 0.00 in0.0 mm
10:56 AM 42.3°F5.7°C 36.5°F2.5°C 80% 0.4 mph NNE0.6 kmh NNE 0.4 mph0.6 kmh 30.32 in1026.8 mb 0.00 in0.0 mm 0.00 in0.0 mm 0.00 in0.0 mm
10:51 AM 42.1°F5.6°C 36.4°F2.4°C 80% 0.2 mph ENE0.3 kmh ENE 0.9 mph1.4 kmh 30.32 in1026.8 mb 0.00 in0.0 mm 0.00 in0.0 mm 0.00 in0.0 mm
10:46 AM 41.9°F5.5°C 35.8°F2.1°C 79% 0.2 mph E0.3 kmh E 1.3 mph2.1 kmh 30.32 in1026.8 mb 0.00 in0.0 mm 0.00 in0.0 mm 0.00 in0.0 mm
10:41 AM 41.9°F5.5°C 35.8°F2.1°C 79% 0.9 mph NNE1.4 kmh NNE 1.3 mph2.1 kmh 30.32 in1026.8 mb 0.00 in0.0 mm 0.00 in0.0 mm 0.00 in0.0 mm
10:36 AM 41.8°F5.4°C 35.6°F2.0°C 79% 0.7 mph NE1.1 kmh NE 1.1 mph1.8 kmh 30.32 in1026.8 mb 0.00 in0.0 mm 0.00 in0.0 mm 0.00 in0.0 mm
10:31 AM 41.8°F5.4°C 35.6°F2.0°C 79% 0.7 mph E1.1 kmh E 1.1 mph1.8 kmh 30.32 in1026.8 mb 0.00 in0.0 mm 0.00 in0.0 mm 0.00 in0.0 mm
10:26 AM 41.6°F5.3°C 35.5°F1.9°C 79% 0.3 mph NNE0.5 kmh NNE 0.9 mph1.4 kmh 30.32 in1026.8 mb 0.00 in0.0 mm 0.00 in0.0 mm 0.00 in0.0 mm
10:21 AM 41.6°F5.3°C 35.5°F1.9°C 79% 0.6 mph NNE1.0 kmh NNE 0.9 mph1.4 kmh 30.33 in1027.1 mb 0.00 in0.0 mm 0.00 in0.0 mm 0.00 in0.0 mm
10:16 AM 41.4°F5.2°C 35.0°F1.7°C 78% Calm Calm 1.8 mph2.9 kmh 30.33 in1027.1 mb 0.00 in0.0 mm 0.00 in0.0 mm 0.00 in0.0 mm
10:11 AM 41.4°F5.2°C 35.0°F1.7°C 78% 0.6 mph ESE1.0 kmh ESE 1.8 mph2.9 kmh 30.33 in1027.1 mb 0.00 in0.0 mm 0.00 in0.0 mm 0.00 in0.0 mm
10:06 AM 41.4°F5.2°C 35.0°F1.7°C 78% 0.3 mph E0.5 kmh E 0.4 mph0.6 kmh 30.33 in1027.1 mb 0.00 in0.0 mm 0.00 in0.0 mm 0.00 in0.0 mm
10:01 AM 41.4°F5.2°C 34.7°F1.5°C 77% Calm Calm 0.9 mph1.4 kmh 30.33 in1027.1 mb 0.00 in0.0 mm 0.00 in0.0 mm 0.00 in0.0 mm
09:56 AM 41.4°F5.2°C 34.7°F1.5°C 77% Calm Calm 0.9 mph1.4 kmh 30.33 in1027.1 mb 0.00 in0.0 mm 0.00 in0.0 mm 0.00 in0.0 mm
09:51 AM 41.4°F5.2°C 34.7°F1.5°C 77% 0.2 mph NE0.3 kmh NE 1.8 mph2.9 kmh 30.33 in1027.1 mb 0.00 in0.0 mm 0.00 in0.0 mm 0.00 in0.0 mm
09:46 AM 41.4°F5.2°C 34.7°F1.5°C 77% 0.4 mph NE0.6 kmh NE 1.8 mph2.9 kmh 30.34 in1027.4 mb 0.00 in0.0 mm 0.00 in0.0 mm 0.00 in0.0 mm
09:41 AM 41.2°F5.1°C 34.2°F1.2°C 76% 0.2 mph NE0.3 kmh NE 1.1 mph1.8 kmh 30.34 in1027.4 mb 0.00 in0.0 mm 0.00 in0.0 mm 0.00 in0.0 mm
09:36 AM 41.2°F5.1°C 34.2°F1.2°C 76% 0.6 mph SE1.0 kmh SE 1.1 mph1.8 kmh 30.33 in1027.1 mb 0.00 in0.0 mm 0.00 in0.0 mm 0.00 in0.0 mm
09:31 AM 41.2°F5.1°C 34.2°F1.2°C 76% 0.4 mph SE0.6 kmh SE 0.4 mph0.6 kmh 30.33 in1027.1 mb 0.00 in0.0 mm 0.00 in0.0 mm 0.00 in0.0 mm
09:26 AM 41.2°F5.1°C 34.2°F1.2°C 76% Calm Calm 1.1 mph1.8 kmh 30.33 in1027.1 mb 0.00 in0.0 mm 0.00 in0.0 mm 0.00 in0.0 mm
09:21 AM 41.2°F5.1°C 34.2°F1.2°C 76% 0.2 mph SE0.3 kmh SE 1.1 mph1.8 kmh 30.33 in1027.1 mb 0.00 in0.0 mm 0.00 in0.0 mm 0.00 in0.0 mm
09:16 AM 41.0°F5.0°C 33.7°F0.9°C 75% 0.7 mph SE1.1 kmh SE 1.1 mph1.8 kmh 30.33 in1027.1 mb 0.00 in0.0 mm 0.00 in0.0 mm 0.00 in0.0 mm
09:11 AM 40.9°F4.9°C 33.5°F0.8°C 75% 0.3 mph NNE0.5 kmh NNE 0.4 mph0.6 kmh 30.33 in1027.1 mb 0.00 in0.0 mm 0.00 in0.0 mm 0.00 in0.0 mm
09:06 AM 40.9°F4.9°C 33.5°F0.8°C 75% Calm Calm 0.7 mph1.1 kmh 30.33 in1027.1 mb 0.00 in0.0 mm 0.00 in0.0 mm 0.00 in0.0 mm
09:01 AM 40.7°F4.8°C 33.3°F0.7°C 75% 0.4 mph NE0.6 kmh NE 0.7 mph1.1 kmh 30.33 in1027.1 mb 0.00 in0.0 mm 0.00 in0.0 mm 0.00 in0.0 mm
08:56 AM 40.7°F4.8°C 33.3°F0.7°C 75% Calm Calm 1.8 mph2.9 kmh 30.33 in1027.1 mb 0.00 in0.0 mm 0.00 in0.0 mm 0.00 in0.0 mm
08:51 AM 40.7°F4.8°C 33.3°F0.7°C 75% 0.7 mph SE1.1 kmh SE 1.8 mph2.9 kmh 30.33 in1027.1 mb 0.00 in0.0 mm 0.00 in0.0 mm 0.00 in0.0 mm
08:46 AM 40.7°F4.8°C 33.3°F0.7°C 75% 0.2 mph SW0.3 kmh SW 2.2 mph3.5 kmh 30.33 in1027.1 mb 0.00 in0.0 mm 0.00 in0.0 mm 0.00 in0.0 mm
08:41 AM 40.7°F4.8°C 33.3°F0.7°C 75% 0.3 mph SE0.5 kmh SE 2.2 mph3.5 kmh 30.33 in1027.1 mb 0.00 in0.0 mm 0.00 in0.0 mm 0.00 in0.0 mm
08:36 AM 40.7°F4.8°C 33.3°F0.7°C 75% 0.4 mph ESE0.6 kmh ESE 1.3 mph2.1 kmh 30.32 in1026.8 mb 0.00 in0.0 mm 0.00 in0.0 mm 0.00 in0.0 mm
08:31 AM 40.5°F4.7°C 32.9°F0.5°C 74% 0.8 mph SSE1.3 kmh SSE 1.1 mph1.8 kmh 30.32 in1026.8 mb 0.00 in0.0 mm 0.00 in0.0 mm 0.00 in0.0 mm
08:26 AM 40.3°F4.6°C 32.7°F0.4°C 74% 0.4 mph ESE0.6 kmh ESE 1.8 mph2.9 kmh 30.32 in1026.8 mb 0.00 in0.0 mm 0.00 in0.0 mm 0.00 in0.0 mm
08:21 AM 40.1°F4.5°C 32.5°F0.3°C 74% 0.4 mph ESE0.6 kmh ESE 1.8 mph2.9 kmh 30.32 in1026.8 mb 0.00 in0.0 mm 0.00 in0.0 mm 0.00 in0.0 mm
08:16 AM 40.1°F4.5°C 32.5°F0.3°C 74% 0.7 mph NNE1.1 kmh NNE 0.7 mph1.1 kmh 30.32 in1026.8 mb 0.00 in0.0 mm 0.00 in0.0 mm 0.00 in0.0 mm
08:11 AM 40.0°F4.4°C 32.3°F0.2°C 74% 0.4 mph SE0.6 kmh SE 0.9 mph1.4 kmh 30.32 in1026.8 mb 0.00 in0.0 mm 0.00 in0.0 mm 0.00 in0.0 mm
08:06 AM 40.0°F4.4°C 32.3°F0.2°C 74% 0.2 mph E0.3 kmh E 0.9 mph1.4 kmh 30.31 in1026.4 mb 0.00 in0.0 mm 0.00 in0.0 mm 0.00 in0.0 mm
08:01 AM 39.8°F4.3°C 32.1°F0.1°C 74% Calm Calm 1.6 mph2.6 kmh 30.31 in1026.4 mb 0.00 in0.0 mm 0.00 in0.0 mm 0.00 in0.0 mm
07:56 AM 39.6°F4.2°C 32.3°F0.2°C 75% 0.9 mph NE1.4 kmh NE 1.6 mph2.6 kmh 30.31 in1026.4 mb 0.00 in0.0 mm 0.00 in0.0 mm 0.00 in0.0 mm
07:51 AM 39.6°F4.2°C 32.3°F0.2°C 75% 0.3 mph ENE0.5 kmh ENE 0.4 mph0.6 kmh 30.31 in1026.4 mb 0.00 in0.0 mm 0.00 in0.0 mm 0.00 in0.0 mm
07:46 AM 39.6°F4.2°C 32.3°F0.2°C 75% 0.4 mph NNE0.6 kmh NNE 0.4 mph0.6 kmh 30.31 in1026.4 mb 0.00 in0.0 mm 0.00 in0.0 mm 0.00 in0.0 mm
07:41 AM 39.6°F4.2°C 32.3°F0.2°C 75% Calm Calm -- 30.31 in1026.4 mb 0.00 in0.0 mm 0.00 in0.0 mm 0.00 in0.0 mm
07:36 AM 39.6°F4.2°C 32.3°F0.2°C 75% Calm Calm -- 30.32 in1026.8 mb 0.00 in0.0 mm 0.00 in0.0 mm 0.00 in0.0 mm
07:31 AM 39.4°F4.1°C 32.1°F0.1°C 75% Calm Calm -- 30.31 in1026.4 mb 0.00 in0.0 mm 0.00 in0.0 mm 0.00 in0.0 mm
07:26 AM 39.4°F4.1°C 32.1°F0.1°C 75% Calm Calm -- 30.31 in1026.4 mb 0.00 in0.0 mm 0.00 in0.0 mm 0.00 in0.0 mm
07:21 AM 39.4°F4.1°C 32.1°F0.1°C 75% Calm Calm -- 30.32 in1026.8 mb 0.00 in0.0 mm 0.00 in0.0 mm 0.00 in0.0 mm
07:16 AM 39.4°F4.1°C 32.1°F0.1°C 75% Calm Calm -- 30.31 in1026.4 mb 0.00 in0.0 mm 0.00 in0.0 mm 0.00 in0.0 mm
07:11 AM 39.4°F4.1°C 32.1°F0.1°C 75% Calm Calm -- 30.31 in1026.4 mb 0.00 in0.0 mm 0.00 in0.0 mm 0.00 in0.0 mm
07:06 AM 39.4°F4.1°C 32.5°F0.3°C 76% Calm Calm -- 30.31 in1026.4 mb 0.00 in0.0 mm 0.00 in0.0 mm 0.00 in0.0 mm
07:01 AM 39.4°F4.1°C 32.1°F0.1°C 75% Calm Calm -- 30.31 in1026.4 mb 0.00 in0.0 mm 0.00 in0.0 mm 0.00 in0.0 mm
06:56 AM 39.4°F4.1°C 32.1°F0.1°C 75% Calm Calm -- 30.31 in1026.4 mb 0.00 in0.0 mm 0.00 in0.0 mm 0.00 in0.0 mm
06:51 AM 39.2°F4.0°C 32.0°F0.0°C 75% Calm Calm -- 30.31 in1026.4 mb 0.00 in0.0 mm 0.00 in0.0 mm 0.00 in0.0 mm
06:46 AM 39.2°F4.0°C 32.0°F0.0°C 75% Calm Calm -- 30.31 in1026.4 mb 0.00 in0.0 mm 0.00 in0.0 mm 0.00 in0.0 mm
06:41 AM 39.2°F4.0°C 32.0°F0.0°C 75% Calm Calm -- 30.31 in1026.4 mb 0.00 in0.0 mm 0.00 in0.0 mm 0.00 in0.0 mm
06:36 AM 39.2°F4.0°C 32.0°F0.0°C 75% Calm Calm -- 30.31 in1026.4 mb 0.00 in0.0 mm 0.00 in0.0 mm 0.00 in0.0 mm
06:31 AM 39.2°F4.0°C 32.0°F0.0°C 75% Calm Calm -- 30.30 in1026.1 mb 0.00 in0.0 mm 0.00 in0.0 mm 0.00 in0.0 mm
06:26 AM 39.2°F4.0°C 31.6°F-0.2°C 74% Calm Calm -- 30.30 in1026.1 mb 0.00 in0.0 mm 0.00 in0.0 mm 0.00 in0.0 mm
06:21 AM 39.2°F4.0°C 31.6°F-0.2°C 74% Calm Calm -- 30.31 in1026.4 mb 0.00 in0.0 mm 0.00 in0.0 mm 0.00 in0.0 mm
06:16 AM 39.2°F4.0°C 31.6°F-0.2°C 74% Calm Calm -- 30.30 in1026.1 mb 0.00 in0.0 mm 0.00 in0.0 mm 0.00 in0.0 mm
06:11 AM 39.2°F4.0°C 31.6°F-0.2°C 74% Calm Calm -- 30.30 in1026.1 mb 0.00 in0.0 mm 0.00 in0.0 mm 0.00 in0.0 mm
06:06 AM 39.1°F3.9°C 31.4°F-0.3°C 74% Calm Calm -- 30.30 in1026.1 mb 0.00 in0.0 mm 0.00 in0.0 mm 0.00 in0.0 mm
06:01 AM 39.1°F3.9°C 31.4°F-0.3°C 74% Calm Calm -- 30.30 in1026.1 mb 0.00 in0.0 mm 0.00 in0.0 mm 0.00 in0.0 mm
05:56 AM 39.1°F3.9°C 31.4°F-0.3°C 74% Calm Calm -- 30.30 in1026.1 mb 0.00 in0.0 mm 0.00 in0.0 mm 0.00 in0.0 mm
05:51 AM 38.9°F3.8°C 31.2°F-0.4°C 74% Calm Calm 0.4 mph0.6 kmh 30.30 in1026.1 mb 0.00 in0.0 mm 0.00 in0.0 mm 0.00 in0.0 mm
05:46 AM 38.9°F3.8°C 31.2°F-0.4°C 74% 0.2 mph NNE0.3 kmh NNE 0.4 mph0.6 kmh 30.30 in1026.1 mb 0.00 in0.0 mm 0.00 in0.0 mm 0.00 in0.0 mm
05:41 AM 38.9°F3.8°C 31.2°F-0.4°C 74% Calm Calm -- 30.30 in1026.1 mb 0.00 in0.0 mm 0.00 in0.0 mm 0.00 in0.0 mm
05:36 AM 38.9°F3.8°C 31.2°F-0.4°C 74% Calm Calm -- 30.30 in1026.1 mb 0.00 in0.0 mm 0.00 in0.0 mm 0.00 in0.0 mm
05:31 AM 38.7°F3.7°C 31.2°F-0.4°C 74% Calm Calm 0.2 mph0.3 kmh 30.30 in1026.1 mb 0.00 in0.0 mm 0.00 in0.0 mm 0.00 in0.0 mm
05:26 AM 38.7°F3.7°C 31.4°F-0.3°C 75% Calm Calm 0.2 mph0.3 kmh 30.30 in1026.1 mb 0.00 in0.0 mm 0.00 in0.0 mm 0.00 in0.0 mm
05:21 AM 38.7°F3.7°C 31.2°F-0.4°C 74% Calm Calm -- 30.30 in1026.1 mb 0.00 in0.0 mm 0.00 in0.0 mm 0.00 in0.0 mm
05:16 AM 38.7°F3.7°C 31.4°F-0.3°C 75% Calm Calm 0.9 mph1.4 kmh 30.30 in1026.1 mb 0.00 in0.0 mm 0.00 in0.0 mm 0.00 in0.0 mm
05:11 AM 38.7°F3.7°C 31.4°F-0.3°C 75% 0.6 mph NE1.0 kmh NE 0.9 mph1.4 kmh 30.30 in1026.1 mb 0.00 in0.0 mm 0.00 in0.0 mm 0.00 in0.0 mm
05:06 AM 38.7°F3.7°C 31.4°F-0.3°C 75% 0.3 mph ENE0.5 kmh ENE 1.1 mph1.8 kmh 30.30 in1026.1 mb 0.00 in0.0 mm 0.00 in0.0 mm 0.00 in0.0 mm
05:01 AM 38.7°F3.7°C 31.4°F-0.3°C 75% 0.9 mph NE1.4 kmh NE 1.1 mph1.8 kmh 30.30 in1026.1 mb 0.00 in0.0 mm 0.00 in0.0 mm 0.00 in0.0 mm
04:56 AM 38.7°F3.7°C 31.4°F-0.3°C 75% 0.4 mph 0.6 kmh 0.9 mph1.4 kmh 30.30 in1026.1 mb 0.00 in0.0 mm 0.00 in0.0 mm 0.00 in0.0 mm
04:51 AM 38.5°F3.6°C 31.2°F-0.4°C 75% Calm Calm 0.4 mph0.6 kmh 30.31 in1026.4 mb 0.00 in0.0 mm 0.00 in0.0 mm 0.00 in0.0 mm
04:46 AM 38.5°F3.6°C 31.6°F-0.2°C 76% Calm Calm 0.4 mph0.6 kmh 30.31 in1026.4 mb 0.00 in0.0 mm 0.00 in0.0 mm 0.00 in0.0 mm
04:41 AM 38.5°F3.6°C 31.6°F-0.2°C 76% Calm Calm 0.4 mph0.6 kmh 30.31 in1026.4 mb 0.00 in0.0 mm 0.00 in0.0 mm 0.00 in0.0 mm
04:36 AM 38.5°F3.6°C 32.0°F0.0°C 77% 0.2 mph NNE0.3 kmh NNE 0.4 mph0.6 kmh 30.31 in1026.4 mb 0.00 in0.0 mm 0.00 in0.0 mm 0.00 in0.0 mm
04:31 AM 38.5°F3.6°C 32.0°F0.0°C 77% Calm Calm 0.4 mph0.6 kmh 30.31 in1026.4 mb 0.00 in0.0 mm 0.00 in0.0 mm 0.00 in0.0 mm
04:26 AM 38.5°F3.6°C 32.0°F0.0°C 77% Calm Calm -- 30.32 in1026.8 mb 0.00 in0.0 mm 0.00 in0.0 mm 0.00 in0.0 mm
04:21 AM 38.5°F3.6°C 32.0°F0.0°C 77% Calm Calm -- 30.32 in1026.8 mb 0.00 in0.0 mm 0.00 in0.0 mm 0.00 in0.0 mm
04:16 AM 38.5°F3.6°C 32.0°F0.0°C 77% Calm Calm -- 30.32 in1026.8 mb 0.00 in0.0 mm 0.00 in0.0 mm 0.00 in0.0 mm
04:11 AM 38.3°F3.5°C 31.4°F-0.3°C 76% Calm Calm -- 30.32 in1026.8 mb 0.00 in0.0 mm 0.00 in0.0 mm 0.00 in0.0 mm
04:06 AM 38.2°F3.4°C 31.2°F-0.4°C 76% Calm Calm -- 30.33 in1027.1 mb 0.00 in0.0 mm 0.00 in0.0 mm 0.00 in0.0 mm
04:01 AM 38.2°F3.4°C 31.6°F-0.2°C 77% Calm Calm -- 30.33 in1027.1 mb 0.00 in0.0 mm 0.00 in0.0 mm 0.00 in0.0 mm
03:56 AM 38.0°F3.3°C 31.4°F-0.3°C 77% Calm Calm -- 30.33 in1027.1 mb 0.00 in0.0 mm 0.00 in0.0 mm 0.00 in0.0 mm
03:51 AM 38.0°F3.3°C 31.4°F-0.3°C 77% Calm Calm -- 30.34 in1027.4 mb 0.00 in0.0 mm 0.00 in0.0 mm 0.00 in0.0 mm
03:46 AM 37.8°F3.2°C 31.2°F-0.4°C 77% Calm Calm -- 30.33 in1027.1 mb 0.00 in0.0 mm 0.00 in0.0 mm 0.00 in0.0 mm
03:41 AM 37.8°F3.2°C 30.9°F-0.6°C 76% Calm Calm -- 30.34 in1027.4 mb 0.00 in0.0 mm 0.00 in0.0 mm 0.00 in0.0 mm
03:36 AM 37.8°F3.2°C 30.9°F-0.6°C 76% Calm Calm -- 30.34 in1027.4 mb 0.00 in0.0 mm 0.00 in0.0 mm 0.00 in0.0 mm
03:31 AM 37.6°F3.1°C 30.8°F-0.7°C 76% Calm Calm -- 30.34 in1027.4 mb 0.00 in0.0 mm 0.00 in0.0 mm 0.00 in0.0 mm
03:26 AM 37.4°F3.0°C 30.6°F-0.8°C 76% Calm Calm -- 30.33 in1027.1 mb 0.00 in0.0 mm 0.00 in0.0 mm 0.00 in0.0 mm
03:20 AM 37.4°F3.0°C 30.6°F-0.8°C 76% Calm Calm 0.2 mph0.3 kmh 30.33 in1027.1 mb 0.00 in0.0 mm 0.00 in0.0 mm 0.00 in0.0 mm
03:16 AM 37.4°F3.0°C 30.6°F-0.8°C 76% Calm Calm 0.2 mph0.3 kmh 30.33 in1027.1 mb 0.00 in0.0 mm 0.00 in0.0 mm 0.00 in0.0 mm
03:11 AM 37.3°F2.9°C 30.4°F-0.9°C 76% Calm Calm -- 30.33 in1027.1 mb 0.00 in0.0 mm 0.00 in0.0 mm 0.00 in0.0 mm
03:06 AM 37.1°F2.8°C 30.5°F-0.8°C 77% Calm Calm -- 30.33 in1027.1 mb 0.00 in0.0 mm 0.00 in0.0 mm 0.00 in0.0 mm
03:00 AM 37.1°F2.8°C 30.5°F-0.8°C 77% Calm Calm -- 30.33 in1027.1 mb 0.00 in0.0 mm 0.00 in0.0 mm 0.00 in0.0 mm
02:56 AM 36.9°F2.7°C 30.3°F-0.9°C 77% Calm Calm -- 30.34 in1027.4 mb 0.00 in0.0 mm 0.00 in0.0 mm 0.00 in0.0 mm
02:51 AM 36.7°F2.6°C 30.2°F-1.0°C 77% Calm Calm 0.4 mph0.6 kmh 30.33 in1027.1 mb 0.00 in0.0 mm 0.00 in0.0 mm 0.00 in0.0 mm
02:46 AM 36.7°F2.6°C 30.5°F-0.8°C 78% Calm Calm 0.4 mph0.6 kmh 30.33 in1027.1 mb 0.00 in0.0 mm 0.00 in0.0 mm 0.00 in0.0 mm
02:41 AM 36.5°F2.5°C 30.3°F-0.9°C 78% Calm Calm 0.7 mph1.1 kmh 30.33 in1027.1 mb 0.00 in0.0 mm 0.00 in0.0 mm 0.00 in0.0 mm
02:36 AM 36.4°F2.4°C 30.2°F-1.0°C 78% 0.2 mph 0.3 kmh 1.1 mph1.8 kmh 30.33 in1027.1 mb 0.00 in0.0 mm 0.00 in0.0 mm 0.00 in0.0 mm
02:30 AM 36.2°F2.3°C 30.2°F-1.0°C 79% 0.8 mph E1.3 kmh E 1.1 mph1.8 kmh 30.33 in1027.1 mb 0.00 in0.0 mm 0.00 in0.0 mm 0.00 in0.0 mm
02:25 AM 36.0°F2.2°C 30.1°F-1.1°C 79% Calm Calm -- 30.33 in1027.1 mb 0.00 in0.0 mm 0.00 in0.0 mm 0.00 in0.0 mm
02:20 AM 35.8°F2.1°C 30.2°F-1.0°C 80% Calm Calm -- 30.33 in1027.1 mb 0.00 in0.0 mm 0.00 in0.0 mm 0.00 in0.0 mm
02:16 AM 35.6°F2.0°C 30.1°F-1.1°C 80% Calm Calm -- 30.33 in1027.1 mb 0.00 in0.0 mm 0.00 in0.0 mm 0.00 in0.0 mm
02:11 AM 35.5°F1.9°C 29.9°F-1.2°C 80% Calm Calm -- 30.33 in1027.1 mb 0.00 in0.0 mm 0.00 in0.0 mm 0.00 in0.0 mm
02:05 AM 35.3°F1.8°C 29.3°F-1.5°C 79% Calm Calm -- 30.33 in1027.1 mb 0.00 in0.0 mm 0.00 in0.0 mm 0.00 in0.0 mm
02:00 AM 35.1°F1.7°C 29.2°F-1.6°C 79% Calm Calm -- 30.34 in1027.4 mb 0.00 in0.0 mm 0.00 in0.0 mm 0.00 in0.0 mm
01:55 AM 34.9°F1.6°C 29.0°F-1.7°C 79% Calm Calm -- 30.34 in1027.4 mb 0.00 in0.0 mm 0.00 in0.0 mm 0.00 in0.0 mm
01:50 AM 34.7°F1.5°C 28.8°F-1.8°C 79% Calm Calm -- 30.34 in1027.4 mb 0.00 in0.0 mm 0.00 in0.0 mm 0.00 in0.0 mm
01:45 AM 34.6°F1.4°C 28.6°F-1.9°C 79% Calm Calm -- 30.34 in1027.4 mb 0.00 in0.0 mm 0.00 in0.0 mm 0.00 in0.0 mm
01:40 AM 34.4°F1.3°C 28.4°F-2.0°C 79% Calm Calm -- 30.34 in1027.4 mb 0.00 in0.0 mm 0.00 in0.0 mm 0.00 in0.0 mm
01:35 AM 34.2°F1.2°C 28.3°F-2.1°C 79% Calm Calm -- 30.34 in1027.4 mb 0.00 in0.0 mm 0.00 in0.0 mm 0.00 in0.0 mm
01:30 AM 34.0°F1.1°C 28.4°F-2.0°C 80% Calm Calm -- 30.34 in1027.4 mb 0.00 in0.0 mm 0.00 in0.0 mm 0.00 in0.0 mm
01:25 AM 33.8°F1.0°C 27.9°F-2.3°C 79% Calm Calm -- 30.33 in1027.1 mb 0.00 in0.0 mm 0.00 in0.0 mm 0.00 in0.0 mm
01:20 AM 33.5°F0.8°C 27.6°F-2.4°C 79% Calm Calm -- 30.34 in1027.4 mb 0.00 in0.0 mm 0.00 in0.0 mm 0.00 in0.0 mm
01:15 AM 33.1°F0.6°C 27.3°F-2.6°C 79% Calm Calm -- 30.34 in1027.4 mb 0.00 in0.0 mm 0.00 in0.0 mm 0.00 in0.0 mm
01:10 AM 32.9°F0.5°C 27.1°F-2.7°C 79% Calm Calm -- 30.34 in1027.4 mb 0.00 in0.0 mm 0.00 in0.0 mm 0.00 in0.0 mm
01:05 AM 32.8°F0.4°C 27.0°F-2.8°C 79% Calm Calm -- 30.34 in1027.4 mb 0.00 in0.0 mm 0.00 in0.0 mm 0.00 in0.0 mm
01:00 AM 32.4°F0.2°C 26.3°F-3.2°C 78% Calm Calm -- 30.34 in1027.4 mb 0.00 in0.0 mm 0.00 in0.0 mm 0.00 in0.0 mm
12:55 AM 32.4°F0.2°C 26.3°F-3.2°C 78% Calm Calm -- 30.34 in1027.4 mb 0.00 in0.0 mm 0.00 in0.0 mm 0.00 in0.0 mm
12:50 AM 32.2°F0.1°C 26.2°F-3.2°C 78% Calm Calm -- 30.34 in1027.4 mb 0.00 in0.0 mm 0.00 in0.0 mm 0.00 in0.0 mm
12:45 AM 32.2°F0.1°C 26.2°F-3.2°C 78% Calm Calm -- 30.35 in1027.8 mb 0.00 in0.0 mm 0.00 in0.0 mm 0.00 in0.0 mm
12:40 AM 32.2°F0.1°C 26.2°F-3.2°C 78% Calm Calm -- 30.35 in1027.8 mb 0.00 in0.0 mm 0.00 in0.0 mm 0.00 in0.0 mm
12:35 AM 32.2°F0.1°C 26.2°F-3.2°C 78% Calm Calm -- 30.35 in1027.8 mb 0.00 in0.0 mm 0.00 in0.0 mm 0.00 in0.0 mm
12:30 AM 32.4°F0.2°C 26.0°F-3.3°C 77% Calm Calm -- 30.36 in1028.1 mb 0.00 in0.0 mm 0.00 in0.0 mm 0.00 in0.0 mm
12:25 AM 32.4°F0.2°C 26.0°F-3.3°C 77% Calm Calm -- 30.36 in1028.1 mb 0.00 in0.0 mm 0.00 in0.0 mm 0.00 in0.0 mm
12:20 AM 32.6°F0.3°C 26.2°F-3.2°C 77% Calm Calm -- 30.36 in1028.1 mb 0.00 in0.0 mm 0.00 in0.0 mm 0.00 in0.0 mm
12:15 AM 32.8°F0.4°C 26.3°F-3.2°C 77% Calm Calm -- 30.36 in1028.1 mb 0.00 in0.0 mm 0.00 in0.0 mm 0.00 in0.0 mm
12:10 AM 32.8°F0.4°C 26.0°F-3.3°C 76% Calm Calm -- 30.36 in1028.1 mb 0.00 in0.0 mm 0.00 in0.0 mm 0.00 in0.0 mm
12:05 AM 33.1°F0.6°C 26.3°F-3.2°C 76% Calm Calm -- 30.36 in1028.1 mb 0.00 in0.0 mm 0.00 in0.0 mm 0.00 in0.0 mm
12:00 AM 33.3°F0.7°C 26.5°F-3.1°C 76% Calm Calm -- 30.36 in1028.1 mb 0.00 in0.0 mm 0.00 in0.0 mm 0.00 in0.0 mm